Time;durP1;ratioP1;P1;durP2;ratioP2;P2;SDS_P1;SDS_P2;PMS_P1;PMS_P2;Temp;Humidity;BMP_temperature;BMP_pressure;BME280_temperature;BME280_humidity;BME280_pressure;Samples;Min_cycle;Max_cycle;Signal;HPM_P1;HPM_P2
2023/01/16 00:00:18;;;;;;;5.50;2.30;;;4.30;1.00;;;;;;5140055;27;20887;-64
2023/01/16 00:02:45;;;;;;;5.67;2.50;;;4.30;1.00;;;;;;5141238;27;20835;-64
2023/01/16 00:05:12;;;;;;;4.63;2.30;;;4.30;1.00;;;;;;5140605;27;20433;-62
2023/01/16 00:07:39;;;;;;;4.50;2.33;;;4.30;1.00;;;;;;5140803;27;20463;-62
2023/01/16 00:10:07;;;;;;;4.73;2.13;;;4.30;1.00;;;;;;5138713;27;20553;-62
2023/01/16 00:12:34;;;;;;;7.63;2.40;;;4.20;1.00;;;;;;5141134;27;20482;-62
2023/01/16 00:15:04;;;;;;;4.70;2.07;;;4.20;1.00;;;;;;5140509;27;20458;-61
2023/01/16 00:17:31;;;;;;;6.30;1.70;;;4.20;99.90;;;;;;5141073;27;20433;-61
2023/01/16 00:19:58;;;;;;;5.40;2.47;;;4.20;7.70;;;;;;5136994;27;20478;-60
2023/01/16 00:22:25;;;;;;;4.30;2.20;;;4.20;1.00;;;;;;5120093;28;20493;-64
2023/01/16 00:24:52;;;;;;;3.53;1.50;;;4.20;83.30;;;;;;5120679;28;20751;-64
2023/01/16 00:27:19;;;;;;;8.43;2.30;;;4.30;99.90;;;;;;5119440;28;20810;-64
2023/01/16 00:29:46;;;;;;;4.53;1.90;;;4.30;63.40;;;;;;5118857;28;20445;-61
2023/01/16 00:32:15;;;;;;;6.10;1.80;;;4.20;10.80;;;;;;5137759;27;20774;-62
2023/01/16 00:34:42;;;;;;;5.40;1.90;;;4.20;99.90;;;;;;5137360;27;20456;-61
2023/01/16 00:37:09;;;;;;;4.50;2.30;;;4.10;72.00;;;;;;5119361;28;20904;-62
2023/01/16 00:39:38;;;;;;;2.97;1.70;;;4.10;1.00;;;;;;5119353;28;20460;-64
2023/01/16 00:42:05;;;;;;;8.40;2.63;;;4.10;1.00;;;;;;5120009;28;20837;-60
2023/01/16 00:44:32;;;;;;;5.27;2.10;;;4.00;99.90;;;;;;5120174;28;20903;-62
2023/01/16 00:46:59;;;;;;;3.50;1.80;;;4.00;99.90;;;;;;5119823;28;20463;-60
2023/01/16 00:49:28;;;;;;;3.17;1.67;;;4.00;99.90;;;;;;5135437;27;20453;-62
2023/01/16 00:51:55;;;;;;;5.00;1.83;;;4.00;40.00;;;;;;5137450;27;20953;-62
2023/01/16 00:54:22;;;;;;;3.10;2.13;;;3.90;1.40;;;;;;5137256;27;20970;-60
2023/01/16 00:56:49;;;;;;;3.70;1.47;;;3.80;99.90;;;;;;5138757;27;20450;-61
2023/01/16 00:59:16;;;;;;;3.93;1.97;;;3.70;99.90;;;;;;5137893;27;20459;-60
2023/01/16 01:01:44;;;;;;;3.30;1.90;;;3.70;1.00;;;;;;5138060;27;20429;-61
2023/01/16 01:04:12;;;;;;;9.13;2.60;;;3.70;1.00;;;;;;5137242;27;21092;-60
2023/01/16 01:06:41;;;;;;;2.80;2.10;;;3.70;99.90;;;;;;5137940;27;20462;-61
2023/01/16 01:09:08;;;;;;;4.73;2.20;;;3.70;99.90;;;;;;5136704;27;20529;-61
2023/01/16 01:11:35;;;;;;;4.30;2.20;;;3.80;1.00;;;;;;5138060;27;20768;-61
2023/01/16 01:14:03;;;;;;;5.13;2.57;;;3.80;1.00;;;;;;5138059;27;20475;-59
2023/01/16 01:16:30;;;;;;;4.33;2.43;;;3.80;99.90;;;;;;5121949;27;20459;-60
2023/01/16 01:18:57;;;;;;;3.13;1.90;;;3.80;1.00;;;;;;5118143;27;20460;-60
2023/01/16 01:21:24;;;;;;;8.93;2.60;;;3.80;1.00;;;;;;5119190;28;20462;-61
2023/01/16 01:23:53;;;;;;;5.13;2.23;;;3.80;1.00;;;;;;5118934;28;20760;-58
2023/01/16 01:26:20;;;;;;;3.70;1.90;;;3.80;99.90;;;;;;5128230;27;20493;-60
2023/01/16 01:28:47;;;;;;;5.87;2.20;;;3.70;99.90;;;;;;5139126;27;20469;-59
2023/01/16 01:31:15;;;;;;;4.93;1.70;;;3.80;99.90;;;;;;5138555;27;20459;-60
2023/01/16 01:33:42;;;;;;;3.83;2.10;;;3.70;1.00;;;;;;5139346;27;20465;-62
2023/01/16 01:36:10;;;;;;;3.70;2.00;;;3.70;1.00;;;;;;5133843;27;20466;-59
2023/01/16 01:38:38;;;;;;;4.43;1.90;;;3.70;1.00;;;;;;5135885;27;20430;-61
2023/01/16 01:41:06;;;;;;;3.97;2.10;;;3.70;1.00;;;;;;5129671;27;20463;-61
2023/01/16 01:43:42;;;;;;;2.87;1.90;;;3.70;52.80;;;;;;5118416;28;20492;-60
2023/01/16 01:46:18;;;;;;;4.70;2.20;;;3.80;99.90;;;;;;5118306;27;20466;-60
2023/01/16 01:48:46;;;;;;;3.87;2.17;;;3.80;1.00;;;;;;5134021;27;20509;-60
2023/01/16 01:51:17;;;;;;;6.60;2.23;;;3.80;99.90;;;;;;5118567;28;20464;-60
2023/01/16 01:53:48;;;;;;;5.03;2.00;;;3.80;1.00;;;;;;5117988;28;20463;-60
2023/01/16 01:56:20;;;;;;;6.30;2.10;;;3.80;93.30;;;;;;5118667;28;20459;-61
2023/01/16 01:58:53;;;;;;;4.47;1.60;;;3.80;1.00;;;;;;5136886;27;20469;-60
2023/01/16 02:01:20;;;;;;;5.10;1.70;;;3.80;1.00;;;;;;5137546;27;20455;-61
2023/01/16 02:03:52;;;;;;;3.70;2.20;;;3.90;99.90;;;;;;5138621;27;20497;-60
2023/01/16 02:06:22;;;;;;;3.20;1.53;;;3.80;99.90;;;;;;5138653;27;20462;-60
2023/01/16 02:08:54;;;;;;;6.37;2.00;;;3.80;99.90;;;;;;5121866;27;20445;-61
2023/01/16 02:11:29;;;;;;;3.30;1.77;;;3.80;99.90;;;;;;5118405;27;20550;-61
2023/01/16 02:13:59;;;;;;;2.83;1.90;;;3.80;99.90;;;;;;5118129;28;20917;-61
2023/01/16 02:19:18;;;;;;;2.80;1.80;;;3.90;99.90;;;;;;5132342;27;20420;-59
2023/01/16 02:22:26;;;;;;;3.67;1.60;;;3.90;99.90;;;;;;5136845;27;20433;-60
2023/01/16 02:25:28;;;;;;;4.53;1.87;;;3.90;99.90;;;;;;5138571;27;20487;-59
2023/01/16 02:28:34;;;;;;;3.00;1.70;;;4.00;99.90;;;;;;5133951;27;20468;-61
2023/01/16 02:31:12;;;;;;;3.20;1.67;;;4.00;1.00;;;;;;5117173;28;20455;-59
2023/01/16 02:33:49;;;;;;;4.80;1.90;;;4.00;99.90;;;;;;5117312;28;20452;-61
2023/01/16 02:36:23;;;;;;;4.63;1.60;;;4.00;1.00;;;;;;5118100;28;20457;-61
2023/01/16 02:39:02;;;;;;;3.23;2.33;;;4.00;99.90;;;;;;5121571;28;20446;-61
2023/01/16 02:41:41;;;;;;;5.73;2.10;;;4.00;1.00;;;;;;5138203;27;20465;-57
2023/01/16 02:44:16;;;;;;;3.03;1.60;;;4.10;99.90;;;;;;5138320;27;20554;-59
2023/01/16 02:46:49;;;;;;;4.90;1.97;;;4.10;82.30;;;;;;5138329;28;20457;-59
2023/01/16 02:49:21;;;;;;;3.47;1.67;;;4.10;99.90;;;;;;5134146;27;20492;-59
2023/01/16 02:51:57;;;;;;;3.80;1.50;;;4.10;1.00;;;;;;5117807;28;20438;-60
2023/01/16 02:54:28;;;;;;;3.83;1.70;;;4.10;99.90;;;;;;5127040;28;20461;-57
2023/01/16 02:57:00;;;;;;;3.13;1.40;;;4.10;99.90;;;;;;5138243;28;20466;-60
2023/01/16 02:59:29;;;;;;;4.00;1.70;;;4.10;99.90;;;;;;5136052;28;20465;-60
2023/01/16 03:01:58;;;;;;;3.73;1.77;;;4.10;1.00;;;;;;5116361;28;20456;-58
2023/01/16 03:04:44;;;;;;;3.83;1.57;;;4.10;1.00;;;;;;5117004;28;20483;-60
2023/01/16 03:07:39;;;;;;;3.50;1.50;;;4.10;1.00;;;;;;5117701;28;20459;-58
2023/01/16 03:10:29;;;;;;;2.50;1.80;;;4.10;1.00;;;;;;5100696;28;20463;-59
2023/01/16 03:13:06;;;;;;;4.97;1.80;;;4.10;99.90;;;;;;5114015;28;20494;-60
2023/01/16 03:15:42;;;;;;;2.33;1.40;;;4.10;99.90;;;;;;5117066;28;20497;-59
2023/01/16 03:18:19;;;;;;;4.93;1.80;;;4.10;99.90;;;;;;5117184;28;20459;-58
2023/01/16 03:20:55;;;;;;;3.40;1.50;;;4.10;1.00;;;;;;5121643;28;20454;-60
2023/01/16 03:23:31;;;;;;;2.10;1.37;;;4.00;1.00;;;;;;5137249;28;20571;-60
2023/01/16 03:26:03;;;;;;;2.90;1.30;;;4.00;1.00;;;;;;5125971;28;20459;-59
2023/01/16 03:28:38;;;;;;;4.53;2.07;;;4.00;99.90;;;;;;5117464;28;20466;-60
2023/01/16 03:31:14;;;;;;;2.77;1.43;;;4.00;99.90;;;;;;5120205;28;20454;-60
2023/01/16 03:33:58;;;;;;;4.70;1.80;;;3.90;99.90;;;;;;5136128;27;20520;-61
2023/01/16 03:36:30;;;;;;;2.70;1.70;;;3.90;99.90;;;;;;5137588;28;20805;-60
2023/01/16 03:39:00;;;;;;;2.90;1.47;;;4.00;99.90;;;;;;5137863;28;20439;-58
2023/01/16 03:41:30;;;;;;;4.23;1.50;;;4.00;99.90;;;;;;5134305;28;20470;-60
2023/01/16 03:44:04;;;;;;;2.30;1.37;;;4.00;99.90;;;;;;5116908;28;20494;-60
2023/01/16 03:46:35;;;;;;;2.20;1.40;;;4.00;99.90;;;;;;5116715;28;20470;-59
2023/01/16 03:49:08;;;;;;;2.10;1.40;;;4.00;99.90;;;;;;5116673;28;20466;-60
2023/01/16 03:51:42;;;;;;;3.00;1.60;;;4.00;99.90;;;;;;5115738;28;20455;-60
2023/01/16 03:54:23;;;;;;;2.93;1.33;;;3.90;99.90;;;;;;5115460;28;20866;-58
2023/01/16 03:56:57;;;;;;;4.97;1.70;;;4.00;99.90;;;;;;5114998;28;20438;-60
2023/01/16 03:59:25;;;;;;;2.50;1.20;;;4.00;99.90;;;;;;5115492;28;20429;-59
2023/01/16 04:01:57;;;;;;;3.47;1.63;;;4.00;99.90;;;;;;5116390;28;20772;-59
2023/01/16 04:04:29;;;;;;;2.97;1.70;;;4.00;99.90;;;;;;5120900;27;20951;-59
2023/01/16 04:07:01;;;;;;;2.87;1.57;;;4.10;99.90;;;;;;5139658;27;20755;-60
2023/01/16 04:09:35;;;;;;;6.80;1.77;;;4.10;99.90;;;;;;5139194;27;20469;-60
2023/01/16 04:12:04;;;;;;;3.90;1.50;;;4.10;99.90;;;;;;5139196;27;20459;-60
2023/01/16 04:14:33;;;;;;;3.97;1.50;;;4.10;99.90;;;;;;5121499;27;20472;-61
2023/01/16 04:17:01;;;;;;;3.80;1.87;;;4.10;99.90;;;;;;5119050;28;20466;-60
2023/01/16 04:19:32;;;;;;;3.83;1.40;;;4.10;99.90;;;;;;5120073;28;20899;-55
2023/01/16 04:21:59;;;;;;;3.17;1.50;;;4.10;99.90;;;;;;5119691;28;20759;-59
2023/01/16 04:24:26;;;;;;;5.03;1.80;;;4.10;65.40;;;;;;5131958;27;20488;-57
2023/01/16 04:26:53;;;;;;;4.50;1.80;;;4.10;11.90;;;;;;5140663;27;20468;-60
2023/01/16 04:29:21;;;;;;;3.97;2.10;;;4.00;6.20;;;;;;5140513;27;20459;-57
2023/01/16 04:31:48;;;;;;;4.00;1.70;;;4.00;27.10;;;;;;5140528;27;20823;-59
2023/01/16 04:34:15;;;;;;;4.27;1.93;;;3.90;99.90;;;;;;5132884;27;20542;-60
2023/01/16 04:36:43;;;;;;;2.20;1.57;;;3.90;99.90;;;;;;5135584;27;20883;-59
2023/01/16 04:39:11;;;;;;;3.93;1.80;;;3.90;99.90;;;;;;5140916;27;20465;-60
2023/01/16 04:41:38;;;;;;;7.17;2.50;;;4.00;1.00;;;;;;5139998;27;20459;-60
2023/01/16 04:44:08;;;;;;;2.53;1.67;;;4.00;99.90;;;;;;5140325;27;20486;-60
2023/01/16 04:46:36;;;;;;;2.63;1.60;;;4.00;99.90;;;;;;5128617;27;20459;-60
2023/01/16 04:49:04;;;;;;;9.23;2.13;;;4.00;1.00;;;;;;5119861;28;20470;-60
2023/01/16 04:51:31;;;;;;;3.50;1.60;;;3.90;1.00;;;;;;5119304;27;20906;-59
2023/01/16 04:54:00;;;;;;;3.10;1.60;;;3.90;1.00;;;;;;5119453;28;20533;-60
2023/01/16 04:56:27;;;;;;;3.50;1.83;;;3.90;1.00;;;;;;5124806;27;20490;-60
2023/01/16 04:58:54;;;;;;;4.53;1.60;;;3.80;1.00;;;;;;5138410;27;20454;-61
2023/01/16 05:01:22;;;;;;;7.40;2.03;;;3.90;21.40;;;;;;5137045;27;20479;-60
2023/01/16 05:03:49;;;;;;;2.77;1.90;;;3.90;31.00;;;;;;5138919;27;20485;-61
2023/01/16 05:06:17;;;;;;;3.90;1.80;;;3.90;1.00;;;;;;5138009;27;20638;-61
2023/01/16 05:08:44;;;;;;;5.27;2.30;;;3.90;1.00;;;;;;5138557;27;20459;-60
2023/01/16 05:11:13;;;;;;;8.70;2.13;;;3.90;1.00;;;;;;5139178;27;20505;-59
2023/01/16 05:13:40;;;;;;;4.27;1.90;;;3.90;1.00;;;;;;5138815;27;20792;-60
2023/01/16 05:16:08;;;;;;;3.87;2.10;;;3.90;1.00;;;;;;5138835;27;20465;-60
2023/01/16 05:18:35;;;;;;;3.43;1.60;;;3.90;1.00;;;;;;5122796;27;20460;-60
2023/01/16 05:21:03;;;;;;;3.90;1.60;;;3.90;1.00;;;;;;5119700;27;20466;-60
2023/01/16 05:23:31;;;;;;;4.43;1.80;;;4.00;1.00;;;;;;5132551;27;20487;-59
2023/01/16 05:25:58;;;;;;;3.93;1.60;;;3.90;1.00;;;;;;5133122;27;20454;-60
2023/01/16 05:28:27;;;;;;;5.00;2.23;;;3.90;99.90;;;;;;5137783;27;20569;-60
2023/01/16 05:30:57;;;;;;;6.20;2.20;;;3.90;99.90;;;;;;5122481;27;20467;-60
2023/01/16 05:33:24;;;;;;;4.63;1.43;;;3.90;99.90;;;;;;5117109;28;20744;-60
2023/01/16 05:35:52;;;;;;;5.40;1.53;;;3.90;99.90;;;;;;5118266;28;20447;-60
2023/01/16 05:38:19;;;;;;;4.40;1.90;;;3.90;99.90;;;;;;5123113;27;20440;-60
2023/01/16 05:40:46;;;;;;;3.47;2.00;;;3.90;99.90;;;;;;5138554;27;20444;-61
2023/01/16 05:43:14;;;;;;;2.80;1.60;;;3.90;99.90;;;;;;5137694;27;20869;-60
2023/01/16 05:45:42;;;;;;;3.40;1.53;;;3.90;99.90;;;;;;5139601;27;20519;-60
2023/01/16 05:48:09;;;;;;;3.10;2.20;;;3.90;99.90;;;;;;5137498;27;20757;-60
2023/01/16 05:50:37;;;;;;;3.33;1.83;;;3.90;99.90;;;;;;5134906;27;20571;-60
2023/01/16 05:53:04;;;;;;;3.97;1.70;;;4.00;99.90;;;;;;5131190;27;20460;-60
2023/01/16 05:55:31;;;;;;;3.30;1.80;;;4.00;99.90;;;;;;5116826;28;20906;-60
2023/01/16 05:57:58;;;;;;;3.30;1.73;;;4.00;99.90;;;;;;5116542;28;20463;-60
2023/01/16 06:00:25;;;;;;;3.07;1.57;;;4.00;99.90;;;;;;5132522;27;20466;-61
2023/01/16 06:02:54;;;;;;;3.50;2.00;;;4.00;99.90;;;;;;5136828;27;20553;-60
2023/01/16 06:05:22;;;;;;;5.33;2.00;;;4.00;99.90;;;;;;5137578;27;20501;-60
2023/01/16 06:07:49;;;;;;;2.20;1.30;;;4.00;99.90;;;;;;5137705;27;20743;-61
2023/01/16 06:10:16;;;;;;;3.13;1.80;;;4.10;80.50;;;;;;5125000;27;20506;-61
2023/01/16 06:12:44;;;;;;;2.77;1.90;;;4.10;72.60;;;;;;5116596;28;20492;-61
2023/01/16 06:15:11;;;;;;;3.50;1.90;;;4.10;48.50;;;;;;5115953;28;20456;-61
2023/01/16 06:17:38;;;;;;;2.53;1.70;;;4.20;33.90;;;;;;5116042;28;20463;-61
2023/01/16 06:20:08;;;;;;;2.20;1.63;;;4.20;1.00;;;;;;5122201;27;20457;-62
2023/01/16 06:22:35;;;;;;;3.03;1.70;;;4.20;1.00;;;;;;5136923;27;20842;-62
2023/01/16 06:25:02;;;;;;;3.90;1.47;;;4.30;3.20;;;;;;5136831;27;20486;-61
2023/01/16 06:27:31;;;;;;;3.80;2.20;;;4.30;1.00;;;;;;5138624;27;20454;-62
2023/01/16 06:29:58;;;;;;;6.50;2.10;;;4.30;1.00;;;;;;5136652;27;20443;-61
2023/01/16 06:32:25;;;;;;;9.60;3.37;;;4.40;1.00;;;;;;5117030;28;20463;-62
2023/01/16 06:34:52;;;;;;;3.03;2.33;;;4.40;1.00;;;;;;5123057;27;20425;-62
2023/01/16 06:37:21;;;;;;;5.80;2.20;;;4.40;1.00;;;;;;5136661;27;20429;-62
2023/01/16 06:39:48;;;;;;;3.57;2.07;;;4.40;1.00;;;;;;5136665;27;20450;-63
2023/01/16 06:42:15;;;;;;;14.60;7.10;;;4.40;1.00;;;;;;5135679;27;20465;-63
2023/01/16 06:44:42;;;;;;;5.30;2.50;;;4.40;1.00;;;;;;5136399;27;20588;-63
2023/01/16 06:47:10;;;;;;;7.10;3.70;;;4.40;1.00;;;;;;5136890;28;20758;-63
2023/01/16 06:49:37;;;;;;;3.13;2.17;;;4.40;1.00;;;;;;5136680;28;20561;-63
2023/01/16 06:52:05;;;;;;;4.27;2.30;;;4.40;1.00;;;;;;5130035;28;20459;-63
2023/01/16 06:54:33;;;;;;;7.57;2.23;;;4.40;1.00;;;;;;5121662;27;20455;-63
2023/01/16 06:57:00;;;;;;;4.20;2.30;;;4.40;1.00;;;;;;5115867;28;20459;-63
2023/01/16 06:59:27;;;;;;;5.70;2.70;;;4.40;1.00;;;;;;5123756;28;20463;-63
2023/01/16 07:01:54;;;;;;;4.60;2.10;;;4.40;1.00;;;;;;5133824;27;20454;-63
2023/01/16 07:04:22;;;;;;;4.37;2.00;;;4.40;1.00;;;;;;5135117;28;20455;-63
2023/01/16 07:06:50;;;;;;;5.63;2.57;;;4.50;1.00;;;;;;5124290;28;20677;-64
2023/01/16 07:09:17;;;;;;;4.33;2.00;;;4.50;1.00;;;;;;5117231;28;20456;-63
2023/01/16 07:11:47;;;;;;;3.80;3.20;;;4.50;1.00;;;;;;5133940;27;20462;-63
2023/01/16 07:22:38;;;;;;;4.17;2.67;;;4.50;1.00;;;;;;5130820;28;20458;-63
2023/01/16 07:25:10;;;;;;;5.53;2.83;;;4.50;1.00;;;;;;5130612;28;20489;-63
2023/01/16 07:27:39;;;;;;;4.30;2.43;;;4.40;1.00;;;;;;5118797;28;20455;-63
2023/01/16 07:30:08;;;;;;;3.73;2.20;;;4.50;1.00;;;;;;5135289;28;20450;-63
2023/01/16 07:32:35;;;;;;;5.13;3.17;;;4.50;1.00;;;;;;5135884;27;20496;-63
2023/01/16 07:35:02;;;;;;;3.70;2.50;;;4.50;1.00;;;;;;5122958;27;20456;-63
2023/01/16 07:37:29;;;;;;;3.80;2.10;;;4.50;1.00;;;;;;5135109;27;20434;-62
2023/01/16 07:39:57;;;;;;;4.30;2.83;;;4.50;1.00;;;;;;5129457;27;20869;-63
2023/01/16 07:42:24;;;;;;;4.37;2.23;;;4.40;1.00;;;;;;5140357;27;20454;-63
2023/01/16 07:44:52;;;;;;;6.30;2.43;;;4.40;1.00;;;;;;5134277;27;20482;-61
2023/01/16 07:47:20;;;;;;;4.57;3.07;;;4.40;1.00;;;;;;5139361;27;20437;-61
2023/01/16 07:49:47;;;;;;;3.80;2.00;;;4.40;1.00;;;;;;5141455;27;20462;-61
2023/01/16 07:52:14;;;;;;;3.57;2.03;;;4.40;1.00;;;;;;5140039;27;20459;-61
2023/01/16 07:54:41;;;;;;;4.50;2.40;;;4.40;1.00;;;;;;5139570;27;20459;-61
2023/01/16 07:57:08;;;;;;;6.30;2.27;;;4.40;1.00;;;;;;5138835;27;20463;-61
2023/01/16 07:59:35;;;;;;;3.83;2.07;;;4.40;1.00;;;;;;5127587;27;20469;-61
2023/01/16 08:02:04;;;;;;;5.17;2.13;;;4.50;1.00;;;;;;5137927;27;20773;-61
2023/01/16 08:04:31;;;;;;;5.20;2.47;;;4.40;1.00;;;;;;5136673;27;20471;-61
2023/01/16 08:06:58;;;;;;;4.97;2.17;;;4.50;1.00;;;;;;5137859;27;20462;-61
2023/01/16 08:09:26;;;;;;;3.47;2.30;;;4.50;1.00;;;;;;5128645;27;20469;-61
2023/01/16 08:11:53;;;;;;;3.80;2.30;;;4.50;1.00;;;;;;5130520;27;20948;-61
2023/01/16 08:14:20;;;;;;;7.07;2.20;;;4.50;1.00;;;;;;5139206;27;20486;-61
2023/01/16 08:16:47;;;;;;;3.90;2.53;;;4.60;1.00;;;;;;5136122;27;20781;-61
2023/01/16 08:19:15;;;;;;;5.80;2.40;;;4.60;1.00;;;;;;5134481;27;20433;-60
2023/01/16 08:21:43;;;;;;;4.10;2.30;;;4.60;1.00;;;;;;5139035;27;20459;-63
2023/01/16 08:24:12;;;;;;;9.17;5.13;;;4.50;1.00;;;;;;5140148;27;20867;-63
2023/01/16 08:26:39;;;;;;;3.43;2.37;;;4.50;1.00;;;;;;5138997;27;20490;-64
2023/01/16 08:29:08;;;;;;;3.40;2.27;;;4.40;1.00;;;;;;5122804;27;20491;-64
2023/01/16 08:31:35;;;;;;;6.70;2.63;;;4.40;1.00;;;;;;5123799;27;20740;-65
2023/01/16 08:34:02;;;;;;;7.77;3.87;;;4.40;1.00;;;;;;5140767;27;20463;-65
2023/01/16 08:36:31;;;;;;;2.97;2.10;;;4.40;1.00;;;;;;5138241;27;20828;-64
2023/01/16 08:38:58;;;;;;;4.30;2.40;;;4.30;1.00;;;;;;5134655;27;20481;-62
2023/01/16 08:52:30;;;;;;;10.53;4.90;;;4.40;1.00;;;;;;5126904;27;20506;-62
2023/01/16 08:54:58;;;;;;;5.43;2.20;;;4.40;1.00;;;;;;5141491;27;20426;-62
2023/01/16 08:57:25;;;;;;;8.47;4.73;;;4.50;1.00;;;;;;5139561;27;20438;-63
2023/01/16 08:59:53;;;;;;;12.20;5.57;;;4.50;1.00;;;;;;5140113;27;20459;-63
2023/01/16 09:02:20;;;;;;;7.83;2.70;;;4.50;1.00;;;;;;5141056;27;20750;-63
2023/01/16 09:04:48;;;;;;;6.10;2.43;;;4.50;1.00;;;;;;5140812;27;20489;-63
2023/01/16 09:07:16;;;;;;;9.13;4.70;;;4.50;1.00;;;;;;5138017;27;20487;-60
2023/01/16 09:09:44;;;;;;;7.80;4.87;;;4.50;1.00;;;;;;5130298;27;20765;-60
2023/01/16 09:14:58;;;;;;;3.93;2.60;;;4.60;1.00;;;;;;5140204;27;20764;-62
2023/01/16 09:17:26;;;;;;;5.13;2.33;;;4.60;1.00;;;;;;5139433;27;21252;-64
2023/01/16 09:19:53;;;;;;;2.90;2.00;;;4.60;1.00;;;;;;5140093;27;20847;-62
2023/01/16 09:22:21;;;;;;;4.37;2.50;;;4.60;1.00;;;;;;5132631;27;20477;-63
2023/01/16 09:24:49;;;;;;;4.70;2.37;;;4.60;1.00;;;;;;5128505;27;20461;-62
2023/01/16 09:27:18;;;;;;;8.30;4.50;;;4.60;1.00;;;;;;5127015;27;20755;-62
2023/01/16 09:29:46;;;;;;;7.43;3.43;;;4.50;1.00;;;;;;5131588;27;20532;-62
2023/01/16 09:32:13;;;;;;;4.77;2.47;;;4.60;1.00;;;;;;5138712;27;20463;-63
2023/01/16 09:34:41;;;;;;;5.50;3.30;;;4.50;1.00;;;;;;5138534;27;20884;-63
2023/01/16 09:37:09;;;;;;;4.50;2.73;;;4.50;1.00;;;;;;5139791;27;20742;-64
2023/01/16 09:39:37;;;;;;;5.77;2.30;;;4.40;1.00;;;;;;5139688;27;20467;-63
2023/01/16 09:45:09;;;;;;;6.67;2.57;;;4.30;1.00;;;;;;5118457;28;20437;-64
2023/01/16 09:47:38;;;;;;;3.57;1.90;;;4.20;1.00;;;;;;5120210;27;20768;-61
2023/01/16 09:50:13;;;;;;;6.37;2.30;;;4.00;15.00;;;;;;5130017;27;20471;-63
2023/01/16 09:58:36;;;;;;;4.43;2.07;;;4.00;99.90;;;;;;5131818;27;20572;-66
2023/01/16 10:01:05;;;;;;;8.33;2.53;;;4.00;99.90;;;;;;5139328;27;20463;-66
2023/01/16 10:03:33;;;;;;;6.27;2.20;;;4.00;99.90;;;;;;5138591;27;20458;-67
2023/01/16 10:06:12;;;;;;;3.47;1.90;;;3.90;99.90;;;;;;5134263;27;20488;-66
2023/01/16 10:08:49;;;;;;;4.10;1.80;;;3.90;99.90;;;;;;5132346;27;20454;-64
2023/01/16 10:11:23;;;;;;;3.07;1.60;;;4.00;1.00;;;;;;5139431;27;20565;-64
2023/01/16 10:14:16;;;;;;;3.20;1.80;;;3.90;99.90;;;;;;5137785;27;21001;-64
2023/01/16 10:16:54;;;;;;;2.83;1.83;;;4.00;99.90;;;;;;5123590;27;20451;-63
2023/01/16 10:19:33;;;;;;;3.17;1.97;;;4.00;99.90;;;;;;5135479;27;20527;-64
2023/01/16 10:22:14;;;;;;;3.47;1.70;;;4.00;99.90;;;;;;5138896;27;20903;-65
2023/01/16 10:24:53;;;;;;;4.17;1.97;;;4.00;99.90;;;;;;5137797;27;20459;-64
2023/01/16 10:27:28;;;;;;;2.83;1.50;;;3.90;99.90;;;;;;5139071;27;20490;-63
2023/01/16 10:30:00;;;;;;;4.50;1.70;;;4.00;99.90;;;;;;5126617;27;20442;-63
2023/01/16 10:32:31;;;;;;;4.60;2.30;;;4.10;99.90;;;;;;5138823;27;20456;-64
2023/01/16 10:35:04;;;;;;;6.73;2.23;;;4.10;99.90;;;;;;5136182;27;20459;-62
2023/01/16 10:37:33;;;;;;;3.50;1.80;;;4.10;92.40;;;;;;5119621;27;20503;-64
2023/01/16 10:40:01;;;;;;;4.03;1.97;;;4.10;1.50;;;;;;5128156;27;20439;-62
2023/01/16 10:50:55;;;;;;;2.20;1.50;;;4.30;1.00;;;;;;5134300;28;20449;-64
2023/01/16 10:53:22;;;;;;;2.30;1.60;;;4.30;1.00;;;;;;5131091;28;20441;-63
2023/01/16 10:55:52;;;;;;;2.23;1.60;;;4.40;1.00;;;;;;5138952;28;20868;-63
2023/01/16 10:58:28;;;;;;;2.60;1.80;;;4.40;1.00;;;;;;5136600;27;20459;-64
2023/01/16 11:01:01;;;;;;;3.27;1.60;;;4.40;1.00;;;;;;5129974;28;20717;-62
2023/01/16 11:03:37;;;;;;;2.27;1.53;;;4.60;1.00;;;;;;5128274;28;20969;-62
2023/01/16 11:06:12;;;;;;;3.63;1.90;;;4.60;1.00;;;;;;5134821;28;20489;-63
2023/01/16 11:08:39;;;;;;;2.10;1.30;;;4.60;1.00;;;;;;5137589;28;20462;-62
2023/01/16 11:18:27;;;;;;;2.80;2.30;;;4.60;1.00;;;;;;5139719;27;20556;-61
2023/01/16 11:19:30;;;;;;;2.90;1.60;;;4.70;1.00;;;;;;5142352;27;20449;-62
2023/01/16 11:22:00;;;;;;;4.30;1.53;;;4.80;1.00;;;;;;5141010;27;20882;-61
2023/01/16 11:24:32;;;;;;;2.87;1.50;;;4.80;1.00;;;;;;5140870;27;20463;-63
2023/01/16 11:27:00;;;;;;;2.83;1.20;;;4.90;1.00;;;;;;5142141;27;20453;-63
2023/01/16 11:29:31;;;;;;;2.57;1.60;;;5.00;1.00;;;;;;5140088;27;20670;-62
2023/01/16 11:32:06;;;;;;;3.00;1.60;;;5.00;1.00;;;;;;5124878;27;20574;-64
2023/01/16 11:34:36;;;;;;;3.13;1.50;;;5.20;1.00;;;;;;5142313;27;20489;-64
2023/01/16 11:37:06;;;;;;;2.30;1.33;;;5.00;1.00;;;;;;5142212;27;20451;-64
2023/01/16 11:39:35;;;;;;;2.20;1.30;;;5.00;1.00;;;;;;5140629;27;20549;-63
2023/01/16 11:46:02;;;;;;;1.90;1.30;;;5.00;1.00;;;;;;5141670;27;20727;-62
2023/01/16 11:47:55;;;;;;;2.97;1.40;;;5.00;1.00;;;;;;5141016;27;20640;-63
2023/01/16 11:50:35;;;;;;;2.07;1.67;;;4.90;1.00;;;;;;5139975;27;20458;-62
2023/01/16 11:53:03;;;;;;;2.40;1.60;;;4.90;1.00;;;;;;5137847;27;20462;-63
2023/01/16 11:55:38;;;;;;;3.10;1.60;;;4.90;1.00;;;;;;5129562;27;20421;-62
2023/01/16 11:58:10;;;;;;;2.90;1.50;;;4.90;1.00;;;;;;5140822;27;20464;-62
2023/01/16 12:00:53;;;;;;;2.10;1.27;;;4.80;1.00;;;;;;5139419;27;20454;-63
2023/01/16 12:03:47;;;;;;;3.13;1.47;;;4.80;1.00;;;;;;5136993;27;20458;-65
2023/01/16 12:06:26;;;;;;;2.20;1.30;;;4.70;1.00;;;;;;5140670;27;20492;-63
2023/01/16 12:09:11;;;;;;;2.27;1.40;;;4.70;1.00;;;;;;5140549;27;20760;-64
2023/01/16 12:11:58;;;;;;;3.27;1.60;;;4.70;1.00;;;;;;5138964;27;20561;-63
2023/01/16 12:14:30;;;;;;;8.30;3.60;;;4.70;1.00;;;;;;5134077;27;20488;-63
2023/01/16 12:17:12;;;;;;;6.63;3.87;;;4.90;1.00;;;;;;5136195;27;20451;-62
2023/01/16 12:20:03;;;;;;;7.40;5.07;;;4.90;1.00;;;;;;5139373;27;20459;-63
2023/01/16 12:22:41;;;;;;;3.53;2.40;;;4.90;1.00;;;;;;5117557;28;20761;-63
2023/01/16 12:25:25;;;;;;;5.60;3.80;;;4.90;1.00;;;;;;5125689;27;20873;-62
2023/01/16 12:28:03;;;;;;;3.97;2.50;;;4.90;1.00;;;;;;5138666;27;20512;-64
2023/01/16 12:30:47;;;;;;;6.30;2.20;;;5.00;1.00;;;;;;5130361;27;20463;-64
2023/01/16 12:33:21;;;;;;;2.70;1.70;;;4.90;1.00;;;;;;5140855;27;20545;-65
2023/01/16 12:35:58;;;;;;;3.17;1.50;;;4.80;1.00;;;;;;5132417;27;20459;-63
2023/01/16 12:38:29;;;;;;;4.33;3.30;;;4.80;1.00;;;;;;5140153;27;20531;-64
2023/01/16 12:44:16;;;;;;;3.43;2.27;;;4.90;1.00;;;;;;5131953;27;20442;-63
2023/01/16 12:46:49;;;;;;;2.67;1.90;;;4.90;1.00;;;;;;5139193;27;20468;-64
2023/01/16 12:49:27;;;;;;;10.13;1.93;;;4.80;1.00;;;;;;5140493;27;20465;-65
2023/01/16 12:52:26;;;;;;;3.10;1.80;;;4.80;1.00;;;;;;5125673;27;20465;-63
2023/01/16 12:55:07;;;;;;;5.27;2.30;;;4.70;1.00;;;;;;5140222;27;20924;-63
2023/01/16 12:58:03;;;;;;;3.40;1.90;;;4.80;1.00;;;;;;5123926;27;20466;-64
2023/01/16 13:00:37;;;;;;;3.40;2.10;;;4.80;1.00;;;;;;5111685;27;20567;-62
2023/01/16 13:03:27;;;;;;;5.70;3.53;;;4.70;1.00;;;;;;5138372;27;20748;-63
2023/01/16 13:05:57;;;;;;;3.77;2.50;;;4.50;1.00;;;;;;5137095;27;20754;-64
2023/01/16 13:08:30;;;;;;;2.83;1.70;;;4.40;1.00;;;;;;5127438;27;20762;-63
2023/01/16 13:13:54;;;;;;;3.57;1.97;;;4.30;99.90;;;;;;5084244;28;20478;-66
2023/01/16 13:16:26;;;;;;;2.67;1.80;;;4.20;99.90;;;;;;5135557;27;20538;-66
2023/01/16 13:18:56;;;;;;;3.10;1.87;;;4.30;99.90;;;;;;5135369;27;20441;-66
2023/01/16 13:21:28;;;;;;;7.20;4.40;;;4.30;99.90;;;;;;5116950;28;20546;-68
2023/01/16 13:24:03;;;;;;;2.67;1.67;;;4.30;1.00;;;;;;5131452;27;20464;-67
2023/01/16 13:26:32;;;;;;;2.40;1.47;;;4.40;1.00;;;;;;5136581;27;20493;-68
2023/01/16 13:29:07;;;;;;;7.93;3.00;;;4.40;27.60;;;;;;5133900;27;20470;-65
2023/01/16 13:31:38;;;;;;;2.73;1.73;;;4.40;41.30;;;;;;5132160;27;20581;-67
2023/01/16 13:34:12;;;;;;;2.80;2.10;;;4.40;1.00;;;;;;5136075;27;20461;-66
2023/01/16 13:37:17;;;;;;;3.03;1.90;;;4.40;91.80;;;;;;5136516;27;20546;-66
2023/01/16 13:40:26;;;;;;;3.20;1.97;;;4.30;1.00;;;;;;5134165;27;20446;-64
2023/01/16 13:45:47;;;;;;;3.13;1.70;;;4.30;1.00;;;;;;5092829;27;20762;-65
2023/01/16 13:45:48;;;;;;;2.50;1.80;;;4.40;99.90;;;;;;5137253;27;20709;-64
2023/01/16 13:48:17;;;;;;;2.23;1.47;;;4.40;99.90;;;;;;5136787;27;20932;-66
2023/01/16 13:50:51;;;;;;;3.47;1.50;;;4.40;99.90;;;;;;5132103;27;20466;-64
2023/01/16 13:53:22;;;;;;;3.37;2.00;;;4.40;99.90;;;;;;5118644;28;20469;-63
2023/01/16 13:55:51;;;;;;;2.93;1.60;;;4.50;99.90;;;;;;5118482;28;20459;-63
2023/01/16 13:58:22;;;;;;;2.87;2.23;;;4.50;1.00;;;;;;5118286;28;20429;-62
2023/01/16 14:00:58;;;;;;;3.03;1.87;;;4.50;1.00;;;;;;5137803;27;20768;-63
2023/01/16 14:03:27;;;;;;;3.77;2.10;;;4.50;1.00;;;;;;5138774;27;20592;-64
2023/01/16 14:05:55;;;;;;;3.13;1.80;;;4.60;1.00;;;;;;5139346;27;20459;-64
2023/01/16 14:09:04;;;;;;;2.80;1.90;;;4.60;1.00;;;;;;5137448;27;20492;-63
2023/01/16 14:11:59;;;;;;;2.83;1.50;;;4.60;99.90;;;;;;5111861;27;20753;-66
2023/01/16 14:18:01;;;;;;;2.07;1.40;;;4.50;1.00;;;;;;5116854;28;20431;-67
2023/01/16 14:20:44;;;;;;;2.23;1.60;;;4.50;99.90;;;;;;5134000;27;20454;-66
2023/01/16 14:26:07;;;;;;;2.00;1.40;;;4.50;1.00;;;;;;5124844;27;20536;-65
2023/01/16 14:28:34;;;;;;;3.17;1.60;;;4.40;1.00;;;;;;5116387;28;20445;-66